createdAt,value
2019-01-15T00:00:10.157Z,6.33
2019-01-15T00:03:13.147Z,1.67
2019-01-15T00:06:15.838Z,5.57
2019-01-15T00:09:18.395Z,5.60
2019-01-15T00:12:20.975Z,3.30
2019-01-15T00:15:23.597Z,4.43
2019-01-15T00:18:26.350Z,2.87
2019-01-15T00:21:29.021Z,5.57
2019-01-15T00:24:31.783Z,1.50
2019-01-15T00:27:34.512Z,0.77
2019-01-15T00:30:37.355Z,3.10
2019-01-15T00:33:40.017Z,4.43
2019-01-15T00:36:42.757Z,5.00
2019-01-15T00:39:45.435Z,4.03
2019-01-15T00:42:48.123Z,3.37
2019-01-15T00:45:50.674Z,5.97
2019-01-15T00:48:53.374Z,3.23
2019-01-15T00:51:56.046Z,2.83
2019-01-15T00:54:58.810Z,4.90
2019-01-15T00:58:01.467Z,3.07
2019-01-15T01:01:05.827Z,6.10
2019-01-15T01:04:09.279Z,3.53
2019-01-15T01:07:12.014Z,2.93
2019-01-15T01:10:15.015Z,4.10
2019-01-15T01:13:17.743Z,3.23
2019-01-15T01:16:20.454Z,2.93
2019-01-15T01:19:23.101Z,2.03
2019-01-15T01:22:25.678Z,4.63
2019-01-15T01:25:28.461Z,5.20
2019-01-15T01:28:31.122Z,5.97
2019-01-15T01:31:33.817Z,3.33
2019-01-15T01:34:36.366Z,3.97
2019-01-15T01:37:39.010Z,2.27
2019-01-15T01:40:41.632Z,3.77
2019-01-15T01:43:44.552Z,6.90
2019-01-15T01:46:47.151Z,2.87
2019-01-15T01:49:49.827Z,2.33
2019-01-15T01:52:52.370Z,3.27
2019-01-15T01:55:54.953Z,7.57
2019-01-15T01:58:57.618Z,3.87
2019-01-15T02:02:00.285Z,2.73
2019-01-15T02:05:04.053Z,3.00
2019-01-15T02:08:07.138Z,3.27
2019-01-15T02:11:09.895Z,3.60
2019-01-15T02:14:12.647Z,3.33
2019-01-15T02:17:15.296Z,4.07
2019-01-15T02:20:19.036Z,2.30
2019-01-15T02:23:21.898Z,3.50
2019-01-15T02:26:24.636Z,5.73
2019-01-15T02:29:28.310Z,5.23
2019-01-15T02:32:30.983Z,2.57
2019-01-15T02:35:33.524Z,4.47
2019-01-15T02:38:36.142Z,7.40
2019-01-15T02:41:38.885Z,2.30
2019-01-15T02:44:41.571Z,2.63
2019-01-15T02:47:44.354Z,3.40
2019-01-15T02:54:34.390Z,3.47
2019-01-15T02:57:37.417Z,3.70
2019-01-15T03:00:40.378Z,1.73
2019-01-15T03:03:43.104Z,3.83
2019-01-15T03:06:45.772Z,3.77
2019-01-15T03:09:48.573Z,1.70
2019-01-15T03:12:55.880Z,3.30
2019-01-15T03:15:56.956Z,6.10
2019-01-15T03:19:00.060Z,7.33
2019-01-15T03:22:03.121Z,2.57
2019-01-15T03:25:07.548Z,3.20
2019-01-15T03:28:10.206Z,4.47
2019-01-15T03:31:13.157Z,2.23
2019-01-15T03:34:15.827Z,5.40
2019-01-15T03:37:18.522Z,5.33
2019-01-15T03:40:23.381Z,3.20
2019-01-15T03:43:25.971Z,3.37
2019-01-15T03:46:28.648Z,2.87
2019-01-15T03:49:31.280Z,2.03
2019-01-15T03:52:33.988Z,3.30
2019-01-15T03:55:36.752Z,1.90
2019-01-15T03:58:39.392Z,2.33
2019-01-15T04:01:42.091Z,5.70
2019-01-15T04:04:45.324Z,4.47
2019-01-15T04:07:51.379Z,3.20
2019-01-15T04:10:53.921Z,2.47
2019-01-15T04:13:56.510Z,3.00
2019-01-15T04:16:59.170Z,2.70
2019-01-15T04:20:01.805Z,7.80
2019-01-15T04:23:04.400Z,7.20
2019-01-15T04:26:07.080Z,3.27
2019-01-15T04:29:09.735Z,5.27
2019-01-15T04:32:12.440Z,3.37
2019-01-15T04:35:15.932Z,2.43
2019-01-15T04:38:18.611Z,4.33
2019-01-15T04:41:21.304Z,1.63
2019-01-15T04:44:23.964Z,2.33
2019-01-15T04:47:26.646Z,2.90
2019-01-15T04:50:29.213Z,5.00
2019-01-15T04:53:31.858Z,4.47
2019-01-15T04:56:34.861Z,3.70
2019-01-15T04:59:37.608Z,2.40
2019-01-15T05:02:40.908Z,3.03
2019-01-15T05:05:43.612Z,4.23
2019-01-15T05:08:46.246Z,6.43
2019-01-15T05:11:48.963Z,4.97
2019-01-15T05:14:51.598Z,4.30
2019-01-15T05:17:54.174Z,1.93
2019-01-15T05:20:57.039Z,5.23
2019-01-15T05:23:59.748Z,2.13
2019-01-15T05:27:02.832Z,5.27
2019-01-15T05:30:08.758Z,3.87
2019-01-15T05:33:11.406Z,6.27
2019-01-15T05:36:14.654Z,6.23
2019-01-15T05:39:17.445Z,6.33
2019-01-15T05:42:19.964Z,2.77
2019-01-15T05:45:31.144Z,4.63
2019-01-15T05:48:35.706Z,11.80
2019-01-15T05:51:40.129Z,3.90
2019-01-15T05:54:43.647Z,7.97
2019-01-15T05:57:46.406Z,5.33
2019-01-15T06:00:48.919Z,3.03
2019-01-15T06:03:51.601Z,4.67
2019-01-15T06:06:54.245Z,6.67
2019-01-15T06:09:56.894Z,3.50
2019-01-15T06:12:59.582Z,4.33
2019-01-15T06:16:03.573Z,2.77
2019-01-15T06:19:06.172Z,5.60
2019-01-15T06:22:08.884Z,8.20
2019-01-15T06:25:11.685Z,1.30
2019-01-15T06:28:14.251Z,7.23
2019-01-15T06:31:17.565Z,4.90
2019-01-15T06:34:20.310Z,6.90
2019-01-15T06:37:23.010Z,3.57
2019-01-15T06:40:25.803Z,3.23
2019-01-15T06:43:28.534Z,20.40
2019-01-15T06:46:31.157Z,4.50
2019-01-15T06:49:33.787Z,3.60
2019-01-15T06:52:36.664Z,3.17
2019-01-15T06:55:39.304Z,3.60
2019-01-15T06:58:42.015Z,4.83
2019-01-15T07:01:44.646Z,1.30
2019-01-15T07:04:47.361Z,2.80
2019-01-15T07:07:50.112Z,3.20
2019-01-15T07:10:52.727Z,2.47
2019-01-15T07:13:57.153Z,9.77
2019-01-15T07:16:59.883Z,3.83
2019-01-15T07:20:03.390Z,14.70
2019-01-15T07:23:06.060Z,5.70
2019-01-15T07:26:08.671Z,2.97
2019-01-15T07:29:11.235Z,20.83
2019-01-15T07:32:13.895Z,13.07
2019-01-15T07:35:16.466Z,5.03
2019-01-15T07:38:19.038Z,6.40
2019-01-15T07:41:21.886Z,8.63
2019-01-15T07:44:24.528Z,6.90
2019-01-15T07:47:27.159Z,5.83
2019-01-15T07:50:29.862Z,24.80
2019-01-15T07:53:32.440Z,33.57
2019-01-15T07:56:35.164Z,36.17
2019-01-15T07:59:37.955Z,41.97
2019-01-15T08:02:41.636Z,21.07
2019-01-15T08:05:44.268Z,12.53
2019-01-15T08:08:46.946Z,24.50
2019-01-15T08:11:49.608Z,17.70
2019-01-15T08:14:53.404Z,11.57
2019-01-15T08:17:56.105Z,13.57
2019-01-15T08:20:58.812Z,9.60
2019-01-15T08:24:04.320Z,17.43
2019-01-15T08:27:07.070Z,21.43
2019-01-15T08:30:15.941Z,21.47
2019-01-15T08:33:18.647Z,23.67
2019-01-15T08:36:21.220Z,8.00
2019-01-15T08:39:23.915Z,3.77
2019-01-15T08:42:26.512Z,3.70
2019-01-15T08:45:29.265Z,8.50
2019-01-15T08:48:33.221Z,4.40
2019-01-15T08:51:36.292Z,12.73
2019-01-15T08:54:38.907Z,8.43
2019-01-15T08:57:41.678Z,8.50
2019-01-15T09:00:44.236Z,10.70
2019-01-15T09:03:46.972Z,14.03
2019-01-15T09:06:49.632Z,6.47
2019-01-15T09:09:52.363Z,5.03
2019-01-15T09:13:41.250Z,7.27
2019-01-15T09:16:43.912Z,8.97
2019-01-15T09:19:46.582Z,5.87
2019-01-15T09:22:49.252Z,13.10
2019-01-15T09:25:51.848Z,9.87
2019-01-15T09:28:54.418Z,20.57
2019-01-15T09:31:58.851Z,11.40
2019-01-15T09:35:01.531Z,10.97
2019-01-15T09:38:06.365Z,7.23
2019-01-15T09:41:09.155Z,6.50
2019-01-15T09:44:11.809Z,7.93
2019-01-15T09:47:14.437Z,13.37
2019-01-15T09:50:17.150Z,9.00
2019-01-15T09:53:19.789Z,8.37
2019-01-15T09:56:22.390Z,10.03
2019-01-15T09:59:24.960Z,20.57
2019-01-15T10:02:27.562Z,6.03
2019-01-15T10:05:30.345Z,7.97
2019-01-15T10:08:33.036Z,4.90
2019-01-15T10:11:35.914Z,7.27
2019-01-15T10:14:41.469Z,20.03
2019-01-15T10:17:43.145Z,5.07
2019-01-15T10:20:45.821Z,3.80
2019-01-15T10:23:48.493Z,7.97
2019-01-15T10:26:51.443Z,6.57
2019-01-15T10:29:59.192Z,7.83
2019-01-15T10:33:24.188Z,9.00
2019-01-15T10:36:25.809Z,9.13
2019-01-15T10:39:28.389Z,9.70
2019-01-15T10:42:31.170Z,4.60
2019-01-15T10:45:33.850Z,4.13
2019-01-15T10:48:36.494Z,5.80
2019-01-15T10:51:39.279Z,5.97
2019-01-15T10:54:42.150Z,6.60
2019-01-15T10:57:44.835Z,8.00
2019-01-15T11:00:47.530Z,4.73
2019-01-15T11:03:50.394Z,5.93
2019-01-15T11:06:53.070Z,7.30
2019-01-15T11:09:55.790Z,4.10
2019-01-15T11:12:58.453Z,5.27
2019-01-15T11:16:01.236Z,5.00
2019-01-15T11:19:03.967Z,3.67
2019-01-15T11:22:06.725Z,9.70
2019-01-15T11:25:11.361Z,5.93
2019-01-15T11:28:15.302Z,5.53
2019-01-15T11:31:18.154Z,2.80
2019-01-15T11:34:20.851Z,2.30
2019-01-15T11:37:23.537Z,6.10
2019-01-15T11:40:26.216Z,3.13
2019-01-15T11:43:29.454Z,6.17
2019-01-15T11:46:32.113Z,6.00
2019-01-15T11:49:34.785Z,5.00
2019-01-15T11:52:37.531Z,4.97
2019-01-15T11:55:40.202Z,10.97
2019-01-15T11:58:43.067Z,5.50
2019-01-15T12:01:50.064Z,5.30
2019-01-15T12:05:04.257Z,3.90
2019-01-15T12:08:35.824Z,11.73
2019-01-15T12:11:48.685Z,5.57
2019-01-15T12:15:13.899Z,3.50
2019-01-15T12:18:42.176Z,3.93
2019-01-15T12:22:02.970Z,4.53
2019-01-15T12:25:34.984Z,5.17
2019-01-15T12:29:10.005Z,2.20
2019-01-15T12:32:23.224Z,10.37
2019-01-15T12:35:48.183Z,3.57
2019-01-15T12:39:28.636Z,4.07
2019-01-15T12:42:57.108Z,3.13
2019-01-15T12:46:34.464Z,4.17
2019-01-15T12:49:55.405Z,3.60
2019-01-15T12:53:32.655Z,4.07
2019-01-15T12:56:58.718Z,2.90
2019-01-15T13:00:26.966Z,3.87
2019-01-15T13:04:02.430Z,2.80
2019-01-15T13:07:33.485Z,3.33
2019-01-15T13:11:01.254Z,3.03
2019-01-15T13:14:35.277Z,2.67
2019-01-15T13:17:55.979Z,2.60
2019-01-15T13:21:36.250Z,3.97
2019-01-15T13:24:58.327Z,2.90
2019-01-15T13:28:10.637Z,2.60
2019-01-15T13:31:31.711Z,2.43
2019-01-15T13:34:46.855Z,4.17
2019-01-15T13:38:17.959Z,24.10
2019-01-15T13:41:40.129Z,5.43
2019-01-15T13:45:11.522Z,6.63
2019-01-15T13:48:52.064Z,5.07
2019-01-15T13:52:14.206Z,7.07
2019-01-15T13:55:40.613Z,6.10
2019-01-15T13:59:02.665Z,3.40
2019-01-15T14:02:23.513Z,3.37
2019-01-15T14:05:36.247Z,4.50
2019-01-15T14:08:57.375Z,4.63
2019-01-15T14:12:12.932Z,3.63
2019-01-15T14:15:48.960Z,6.17
2019-01-15T14:19:14.055Z,16.63
2019-01-15T14:22:36.260Z,5.37
2019-01-15T14:26:05.282Z,5.97
2019-01-15T14:29:26.068Z,5.40
2019-01-15T14:32:51.058Z,5.63
2019-01-15T14:36:25.125Z,6.37
2019-01-15T14:39:53.488Z,7.27
2019-01-15T14:43:27.537Z,7.97
2019-01-15T14:47:04.985Z,5.40
2019-01-15T14:50:26.782Z,5.53
2019-01-15T14:53:41.894Z,5.57
2019-01-15T14:57:15.995Z,7.07
2019-01-15T15:00:44.939Z,4.07
2019-01-15T15:04:06.871Z,4.90
2019-01-15T15:07:47.168Z,10.97
2019-01-15T15:11:24.683Z,6.07
2019-01-15T15:14:49.562Z,4.83
2019-01-15T15:18:11.701Z,6.60
2019-01-15T15:21:39.614Z,4.60
2019-01-15T15:25:00.628Z,4.00
2019-01-15T15:28:22.768Z,3.87
2019-01-15T15:31:59.985Z,10.13
2019-01-15T15:35:26.354Z,12.37
2019-01-15T15:38:48.415Z,6.77
2019-01-15T15:42:29.075Z,9.63
2019-01-15T15:45:50.689Z,9.17
2019-01-15T15:49:11.566Z,6.70
2019-01-15T15:52:32.376Z,12.67
2019-01-15T15:56:01.591Z,7.43
2019-01-15T15:59:23.727Z,11.40
2019-01-15T16:02:49.780Z,11.20
2019-01-15T16:06:03.864Z,11.00
2019-01-15T16:09:29.259Z,4.13
2019-01-15T16:12:51.400Z,7.40
2019-01-15T16:16:40.598Z,10.40
2019-01-15T16:20:15.081Z,12.30
2019-01-15T16:23:39.987Z,13.50
2019-01-15T16:27:05.250Z,13.03
2019-01-15T16:30:21.061Z,11.70
2019-01-15T16:33:41.947Z,15.30
2019-01-15T16:37:02.699Z,15.60
2019-01-15T16:40:32.923Z,9.43
2019-01-15T16:43:55.115Z,19.03
2019-01-15T16:47:16.165Z,13.20
2019-01-15T16:50:30.014Z,10.70
2019-01-15T16:53:44.590Z,10.47
2019-01-15T16:57:05.650Z,14.53
2019-01-15T17:00:39.326Z,11.87
2019-01-15T17:04:01.553Z,26.37
2019-01-15T17:07:23.816Z,14.63
2019-01-15T17:10:34.283Z,15.33
2019-01-15T17:14:08.602Z,16.30
2019-01-15T17:17:36.699Z,19.33
2019-01-15T17:20:50.599Z,15.47
2019-01-15T17:24:14.869Z,14.37
2019-01-15T17:27:29.140Z,17.67
2019-01-15T17:31:03.454Z,31.57
2019-01-15T17:34:25.077Z,19.17
2019-01-15T17:38:02.250Z,29.33
2019-01-15T17:41:15.595Z,25.63
2019-01-15T17:44:36.677Z,26.37
2019-01-15T17:48:07.626Z,35.73
2019-01-15T17:51:35.658Z,20.83
2019-01-15T17:55:07.786Z,25.40
2019-01-15T17:58:20.676Z,39.23
2019-01-15T18:01:51.796Z,34.33
2019-01-15T18:05:16.858Z,28.97
2019-01-15T18:08:37.918Z,26.73
2019-01-15T18:12:02.812Z,29.27
2019-01-15T18:15:29.929Z,30.37
2019-01-15T18:18:59.316Z,23.80
2019-01-15T18:22:24.147Z,23.03
2019-01-15T18:26:02.137Z,23.10
2019-01-15T18:29:26.341Z,27.80
2019-01-15T18:32:57.388Z,27.97
2019-01-15T18:36:20.804Z,32.67
2019-01-15T18:40:01.123Z,35.60
2019-01-15T18:43:29.073Z,34.63
2019-01-15T18:46:55.755Z,35.37
2019-01-15T18:50:21.284Z,28.90
2019-01-15T18:53:30.325Z,30.93
2019-01-15T18:57:07.587Z,16.93
2019-01-15T19:00:44.453Z,36.70
2019-01-15T19:04:06.818Z,28.50
2019-01-15T19:07:32.061Z,20.90
2019-01-15T19:10:53.105Z,17.17
2019-01-15T19:14:04.535Z,20.20
2019-01-15T19:17:44.896Z,34.77
2019-01-15T19:21:25.568Z,16.13
2019-01-15T19:24:46.569Z,27.70
2019-01-15T19:28:13.137Z,30.63
2019-01-15T19:31:34.268Z,25.87
2019-01-15T19:34:56.781Z,37.90
2019-01-15T19:38:37.165Z,36.07
2019-01-15T19:41:58.160Z,29.97
2019-01-15T19:45:23.646Z,22.33
2019-01-15T19:49:03.899Z,27.67
2019-01-15T19:52:34.483Z,25.23
2019-01-15T19:55:55.431Z,25.07
2019-01-15T19:59:16.205Z,33.63
2019-01-15T20:02:47.485Z,33.93
2019-01-15T20:06:27.947Z,22.47
2019-01-15T20:09:48.560Z,23.77
2019-01-15T20:13:10.870Z,37.93
2019-01-15T20:16:38.849Z,27.53
2019-01-15T20:20:01.078Z,33.20
2019-01-15T20:23:27.583Z,19.17
2019-01-15T20:26:52.795Z,27.30
2019-01-15T20:30:13.557Z,25.33
2019-01-15T20:33:36.279Z,30.77
2019-01-15T20:36:57.549Z,26.07
2019-01-15T20:40:27.798Z,23.23
2019-01-15T20:43:52.917Z,25.63
2019-01-15T20:47:15.146Z,23.90
2019-01-15T20:50:37.436Z,28.43
2019-01-15T20:54:08.873Z,20.97
2019-01-15T20:57:40.187Z,37.37
2019-01-15T21:01:02.343Z,23.20
2019-01-15T21:04:36.763Z,23.67
2019-01-15T21:08:04.691Z,26.70
2019-01-15T21:11:44.931Z,25.20
2019-01-15T21:15:12.734Z,28.83
2019-01-15T21:18:33.496Z,21.13
2019-01-15T21:21:44.729Z,29.00
2019-01-15T21:25:06.017Z,23.03
2019-01-15T21:28:26.794Z,27.07
2019-01-15T21:31:47.557Z,17.87
2019-01-15T21:35:09.723Z,25.23
2019-01-15T21:38:44.138Z,37.63
2019-01-15T21:42:06.444Z,27.40
2019-01-15T21:45:27.243Z,28.37
2019-01-15T21:48:55.254Z,19.93
2019-01-15T21:52:47.508Z,28.80
2019-01-15T21:56:05.948Z,32.70
2019-01-15T21:59:30.956Z,36.57
2019-01-15T22:02:57.744Z,26.90
2019-01-15T22:06:29.168Z,33.67
2019-01-15T22:09:48.981Z,29.70
2019-01-15T22:13:14.393Z,30.90
2019-01-15T22:16:36.424Z,25.77
2019-01-15T22:20:07.289Z,31.23
2019-01-15T22:23:29.392Z,30.37
2019-01-15T22:26:50.192Z,41.60
2019-01-15T22:30:12.336Z,31.60
2019-01-15T22:33:43.387Z,27.70
2019-01-15T22:37:20.814Z,27.30
2019-01-15T22:40:32.655Z,38.67
2019-01-15T22:43:45.172Z,25.43
2019-01-15T22:47:07.543Z,21.70
2019-01-15T22:50:28.226Z,27.13
2019-01-15T22:53:47.646Z,25.97
2019-01-15T22:57:22.016Z,23.80
2019-01-15T23:00:50.602Z,35.70
2019-01-15T23:04:31.561Z,35.03
2019-01-15T23:07:52.467Z,27.30
2019-01-15T23:11:29.604Z,40.43
2019-01-15T23:14:57.580Z,34.27
2019-01-15T23:18:37.886Z,38.87
2019-01-15T23:21:59.295Z,33.70
2019-01-15T23:25:19.941Z,35.30
2019-01-15T23:28:31.201Z,36.70
2019-01-15T23:32:05.385Z,33.67
2019-01-15T23:35:34.047Z,32.17
2019-01-15T23:39:11.338Z,29.07
2019-01-15T23:42:45.325Z,25.43
2019-01-15T23:46:06.282Z,34.20
2019-01-15T23:49:50.736Z,42.90
2019-01-15T23:53:24.747Z,34.83
2019-01-15T23:56:47.730Z,39.60
